createdAt,value
2023-02-11T00:00:22.903Z,51.216125
2023-02-11T00:01:22.868Z,51.216171
2023-02-11T00:02:22.907Z,51.216278
2023-02-11T00:03:22.867Z,51.216270
2023-02-11T00:04:22.848Z,51.216167
2023-02-11T00:05:22.837Z,51.216358
2023-02-11T00:06:22.838Z,51.216339
2023-02-11T00:07:22.840Z,51.216003
2023-02-11T00:08:22.812Z,51.215958
2023-02-11T00:09:22.808Z,51.215847
2023-02-11T00:10:22.806Z,51.215744
2023-02-11T00:11:22.854Z,51.215904
2023-02-11T00:12:22.798Z,51.216335
2023-02-11T00:13:22.792Z,51.216259
2023-02-11T00:14:22.783Z,51.215931
2023-02-11T00:15:22.761Z,51.215725
2023-02-11T00:16:22.910Z,51.215675
2023-02-11T00:17:22.781Z,51.215775
2023-02-11T00:18:22.760Z,51.215580
2023-02-11T00:19:22.752Z,51.215652
2023-02-11T00:20:22.773Z,51.215847
2023-02-11T00:21:22.752Z,51.215927
2023-02-11T00:22:22.764Z,51.215927
2023-02-11T00:23:22.729Z,51.215912
2023-02-11T00:24:22.714Z,51.216236
2023-02-11T00:25:22.705Z,51.216114
2023-02-11T00:26:22.696Z,51.216019
2023-02-11T00:27:22.724Z,51.216206
2023-02-11T00:28:22.692Z,51.216053
2023-02-11T00:29:22.680Z,51.216125
2023-02-11T00:30:22.673Z,51.215950
2023-02-11T00:31:22.891Z,51.215759
2023-02-11T00:32:22.748Z,51.215900
2023-02-11T00:33:22.701Z,51.215939
2023-02-11T00:34:22.696Z,51.216152
2023-02-11T00:35:22.702Z,51.216206
2023-02-11T00:36:22.678Z,51.216156
2023-02-11T00:37:22.731Z,51.216213
2023-02-11T00:38:22.683Z,51.216293
2023-02-11T00:39:22.684Z,51.215984
2023-02-11T00:40:22.655Z,51.215893
2023-02-11T00:41:22.643Z,51.215897
2023-02-11T00:42:22.762Z,51.216110
2023-02-11T00:43:22.641Z,51.216213
2023-02-11T00:44:22.647Z,51.215958
2023-02-11T00:45:22.640Z,51.215851
2023-02-11T00:46:22.669Z,51.215965
2023-02-11T00:47:23.382Z,51.216095
2023-02-11T00:48:22.606Z,51.216103
2023-02-11T00:49:22.605Z,51.216072
2023-02-11T00:50:22.579Z,51.215843
2023-02-11T00:51:22.527Z,51.215824
2023-02-11T00:52:22.513Z,51.215744
2023-02-11T00:53:22.606Z,51.215740
2023-02-11T00:54:22.570Z,51.216015
2023-02-11T00:55:22.562Z,51.216251
2023-02-11T00:56:22.554Z,51.216293
2023-02-11T00:57:22.546Z,51.216415
2023-02-11T00:58:22.555Z,51.216343
2023-02-11T00:59:22.524Z,51.216236
2023-02-11T01:00:22.531Z,51.215977
2023-02-11T01:01:22.583Z,51.215759
2023-02-11T01:02:22.511Z,51.215424
2023-02-11T01:03:22.548Z,51.214825
2023-02-11T01:04:22.517Z,51.215424
2023-02-11T01:05:22.551Z,51.215824
2023-02-11T01:06:22.469Z,51.215843
2023-02-11T01:07:22.479Z,51.216129
2023-02-11T01:08:22.508Z,51.216110
2023-02-11T01:09:22.476Z,51.215885
2023-02-11T01:10:22.464Z,51.215839
2023-02-11T01:11:22.453Z,51.215782
2023-02-11T01:12:22.448Z,51.215881
2023-02-11T01:13:22.478Z,51.215855
2023-02-11T01:14:22.460Z,51.215935
2023-02-11T01:15:22.437Z,51.216103
2023-02-11T01:16:22.515Z,51.216022
2023-02-11T01:17:22.392Z,51.216019
2023-02-11T01:18:22.416Z,51.215904
2023-02-11T01:19:22.441Z,51.215965
2023-02-11T01:20:22.394Z,51.215973
2023-02-11T01:21:22.385Z,51.216087
2023-02-11T01:22:22.382Z,51.216011
2023-02-11T01:23:22.389Z,51.215908
2023-02-11T01:24:22.332Z,51.215893
2023-02-11T01:25:22.403Z,51.215847
2023-02-11T01:26:22.373Z,51.215889
2023-02-11T01:27:22.357Z,51.216080
2023-02-11T01:28:22.410Z,51.216278
2023-02-11T01:29:22.359Z,51.216248
2023-02-11T01:30:22.372Z,51.216217
2023-02-11T01:31:22.389Z,51.215961
2023-02-11T01:32:22.321Z,51.215828
2023-02-11T01:33:22.320Z,51.216305
2023-02-11T01:34:22.381Z,51.216354
2023-02-11T01:35:22.318Z,51.216206
2023-02-11T01:36:22.320Z,51.216312
2023-02-11T01:37:22.283Z,51.216312
2023-02-11T01:38:22.297Z,51.215908
2023-02-11T01:39:22.275Z,51.216106
2023-02-11T01:40:22.310Z,51.216011
2023-02-11T01:41:22.252Z,51.216473
2023-02-11T01:42:23.223Z,51.216602
2023-02-11T01:43:22.312Z,51.216244
2023-02-11T01:44:22.238Z,51.216095
2023-02-11T01:45:22.247Z,51.216164
2023-02-11T01:46:22.345Z,51.216095
2023-02-11T01:47:22.225Z,51.216084
2023-02-11T01:48:22.224Z,51.216213
2023-02-11T01:49:22.335Z,51.216282
2023-02-11T01:50:22.194Z,51.216152
2023-02-11T01:51:22.209Z,51.216206
2023-02-11T01:52:22.235Z,51.216282
2023-02-11T01:53:22.832Z,51.216198
2023-02-11T01:54:22.161Z,51.216183
2023-02-11T01:55:22.166Z,51.216225
2023-02-11T01:56:22.165Z,51.216274
2023-02-11T01:57:22.152Z,51.216194
2023-02-11T01:58:22.147Z,51.216164
2023-02-11T01:59:22.131Z,51.216129
2023-02-11T02:00:22.073Z,51.216213
2023-02-11T02:01:22.112Z,51.216213
2023-02-11T02:02:22.064Z,51.216202
2023-02-11T02:03:22.109Z,51.216103
2023-02-11T02:04:22.202Z,51.216171
2023-02-11T02:05:22.033Z,51.216187
2023-02-11T02:06:22.027Z,51.216179
2023-02-11T02:07:22.020Z,51.216164
2023-02-11T02:08:22.015Z,51.216175
2023-02-11T02:09:22.018Z,51.216187
2023-02-11T02:10:22.027Z,51.216167
2023-02-11T02:11:22.029Z,51.216278
2023-02-11T02:12:21.993Z,51.216156
2023-02-11T02:13:21.984Z,51.216064
2023-02-11T02:14:21.977Z,51.216099
2023-02-11T02:15:21.969Z,51.216171
2023-02-11T02:16:22.015Z,51.216171
2023-02-11T02:17:21.945Z,51.216167
2023-02-11T02:18:22.963Z,51.216118
2023-02-11T02:19:21.943Z,51.216156
2023-02-11T02:20:21.931Z,51.216206
2023-02-11T02:21:21.960Z,51.216137
2023-02-11T02:22:22.043Z,51.216118
2023-02-11T02:23:21.925Z,51.216129
2023-02-11T02:24:21.934Z,51.216190
2023-02-11T02:25:21.904Z,51.216209
2023-02-11T02:26:21.910Z,51.216110
2023-02-11T02:27:21.892Z,51.216190
2023-02-11T02:28:21.939Z,51.216198
2023-02-11T02:29:21.875Z,51.216064
2023-02-11T02:30:21.906Z,51.216122
2023-02-11T02:31:21.944Z,51.216114
2023-02-11T02:32:21.859Z,51.216202
2023-02-11T02:33:22.812Z,51.216198
2023-02-11T02:34:22.847Z,51.216106
2023-02-11T02:35:21.830Z,51.216019
2023-02-11T02:36:21.855Z,51.215893
2023-02-11T02:37:21.845Z,51.216011
2023-02-11T02:38:22.897Z,51.216118
2023-02-11T02:39:21.810Z,51.216076
2023-02-11T02:40:21.823Z,51.216068
2023-02-11T02:41:21.819Z,51.216167
2023-02-11T02:42:21.781Z,51.216068
2023-02-11T02:43:21.775Z,51.216003
2023-02-11T02:44:21.823Z,51.216125
2023-02-11T02:45:21.794Z,51.216206
2023-02-11T02:46:21.808Z,51.216141
2023-02-11T02:47:21.771Z,51.216072
2023-02-11T02:48:21.756Z,51.216011
2023-02-11T02:49:22.748Z,51.216034
2023-02-11T02:50:21.735Z,51.215939
2023-02-11T02:51:21.724Z,51.215935
2023-02-11T02:52:21.821Z,51.215870
2023-02-11T02:53:21.723Z,51.215866
2023-02-11T02:54:21.724Z,51.215801
2023-02-11T02:55:21.706Z,51.215889
2023-02-11T02:56:21.748Z,51.215851
2023-02-11T02:57:21.685Z,51.215836
2023-02-11T02:58:21.688Z,51.215733
2023-02-11T02:59:21.720Z,51.215733
2023-02-11T03:00:21.738Z,51.215916
2023-02-11T03:01:21.665Z,51.215958
2023-02-11T03:02:21.672Z,51.216087
2023-02-11T03:03:21.667Z,51.216145
2023-02-11T03:04:21.637Z,51.215996
2023-02-11T03:05:21.639Z,51.216000
2023-02-11T03:06:21.638Z,51.215923
2023-02-11T03:07:21.621Z,51.215931
2023-02-11T03:08:21.621Z,51.216003
2023-02-11T03:09:21.642Z,51.216000
2023-02-11T03:10:21.593Z,51.215931
2023-02-11T03:11:21.589Z,51.215973
2023-02-11T03:12:21.586Z,51.215908
2023-02-11T03:13:21.581Z,51.215897
2023-02-11T03:14:21.599Z,51.215832
2023-02-11T03:15:21.562Z,51.216026
2023-02-11T03:16:21.628Z,51.215897
2023-02-11T03:17:21.553Z,51.215958
2023-02-11T03:18:21.547Z,51.215923
2023-02-11T03:19:21.546Z,51.216057
2023-02-11T03:20:21.549Z,51.216057
2023-02-11T03:21:21.527Z,51.216103
2023-02-11T03:22:21.515Z,51.216026
2023-02-11T03:23:21.518Z,51.216080
2023-02-11T03:24:21.513Z,51.216003
2023-02-11T03:25:21.506Z,51.215954
2023-02-11T03:26:21.504Z,51.215870
2023-02-11T03:27:21.510Z,51.215763
2023-02-11T03:28:21.531Z,51.215767
2023-02-11T03:29:21.462Z,51.215836
2023-02-11T03:30:21.482Z,51.216022
2023-02-11T03:31:21.612Z,51.216026
2023-02-11T03:32:21.460Z,51.215961
2023-02-11T03:33:21.436Z,51.215973
2023-02-11T03:34:21.468Z,51.215942
2023-02-11T03:35:21.463Z,51.215996
2023-02-11T03:36:21.437Z,51.215923
2023-02-11T03:37:21.424Z,51.215969
2023-02-11T03:38:21.442Z,51.216007
2023-02-11T03:39:21.413Z,51.215977
2023-02-11T03:40:21.486Z,51.215881
2023-02-11T03:41:21.389Z,51.215881
2023-02-11T03:42:21.397Z,51.215820
2023-02-11T03:43:21.389Z,51.215946
2023-02-11T03:44:21.383Z,51.216045
2023-02-11T03:45:21.429Z,51.215992
2023-02-11T03:46:21.477Z,51.216080
2023-02-11T03:47:21.383Z,51.215942
2023-02-11T03:48:21.349Z,51.215984
2023-02-11T03:49:21.342Z,51.215969
2023-02-11T03:50:21.342Z,51.216087
2023-02-11T03:51:21.329Z,51.216118
2023-02-11T03:52:21.345Z,51.216015
2023-02-11T03:53:21.357Z,51.216110
2023-02-11T03:54:21.323Z,51.216076
2023-02-11T03:55:21.295Z,51.216133
2023-02-11T03:56:21.297Z,51.216114
2023-02-11T03:57:21.282Z,51.216103
2023-02-11T03:58:21.315Z,51.216133
2023-02-11T03:59:21.315Z,51.216167
2023-02-11T04:00:21.275Z,51.215961
2023-02-11T04:01:21.338Z,51.216171
2023-02-11T04:02:21.254Z,51.215996
2023-02-11T04:03:21.340Z,51.216095
2023-02-11T04:04:21.307Z,51.215919
2023-02-11T04:05:21.226Z,51.215996
2023-02-11T04:06:21.245Z,51.216003
2023-02-11T04:07:21.235Z,51.215984
2023-02-11T04:08:21.212Z,51.216061
2023-02-11T04:09:21.233Z,51.216026
2023-02-11T04:10:21.203Z,51.216103
2023-02-11T04:11:21.204Z,51.215984
2023-02-11T04:12:21.191Z,51.215820
2023-02-11T04:13:21.195Z,51.216118
2023-02-11T04:14:21.181Z,51.215961
2023-02-11T04:15:21.169Z,51.216000
2023-02-11T04:16:21.223Z,51.215935
2023-02-11T04:17:21.147Z,51.215931
2023-02-11T04:18:21.172Z,51.216019
2023-02-11T04:19:21.159Z,51.215961
2023-02-11T04:20:21.147Z,51.216125
2023-02-11T04:21:21.133Z,51.216133
2023-02-11T04:22:21.140Z,51.215645
2023-02-11T04:23:21.107Z,51.215664
2023-02-11T04:24:21.130Z,51.215771
2023-02-11T04:25:21.092Z,51.215691
2023-02-11T04:26:21.086Z,51.215801
2023-02-11T04:27:21.101Z,51.215954
2023-02-11T04:28:21.182Z,51.216000
2023-02-11T04:29:21.096Z,51.215855
2023-02-11T04:30:21.073Z,51.215946
2023-02-11T04:31:21.190Z,51.215908
2023-02-11T04:32:21.054Z,51.215588
2023-02-11T04:33:21.041Z,51.215595
2023-02-11T04:34:21.045Z,51.215729
2023-02-11T04:35:21.052Z,51.215897
2023-02-11T04:36:21.026Z,51.215790
2023-02-11T04:37:21.022Z,51.215721
2023-02-11T04:38:21.007Z,51.215752
2023-02-11T04:39:21.020Z,51.215572
2023-02-11T04:40:21.026Z,51.215752
2023-02-11T04:41:20.997Z,51.215744
2023-02-11T04:42:21.013Z,51.215652
2023-02-11T04:43:20.977Z,51.216007
2023-02-11T04:44:20.978Z,51.216160
2023-02-11T04:45:21.022Z,51.215870
2023-02-11T04:46:21.040Z,51.215694
2023-02-11T04:47:20.962Z,51.215630
2023-02-11T04:48:20.995Z,51.215786
2023-02-11T04:49:20.987Z,51.216042
2023-02-11T04:50:20.973Z,51.215836
2023-02-11T04:51:20.961Z,51.215843
2023-02-11T04:52:20.918Z,51.215939
2023-02-11T04:53:20.920Z,51.216003
2023-02-11T04:54:20.926Z,51.215851
2023-02-11T04:55:20.914Z,51.215935
2023-02-11T04:56:20.898Z,51.216034
2023-02-11T04:57:20.906Z,51.216057
2023-02-11T04:58:20.897Z,51.215939
2023-02-11T04:59:20.879Z,51.215988
2023-02-11T05:00:20.870Z,51.216003
2023-02-11T05:01:20.922Z,51.215919
2023-02-11T05:02:20.868Z,51.216076
2023-02-11T05:03:20.881Z,51.216145
2023-02-11T05:04:20.956Z,51.216110
2023-02-11T05:05:20.887Z,51.216057
2023-02-11T05:06:20.844Z,51.216053
2023-02-11T05:07:20.834Z,51.216011
2023-02-11T05:08:20.820Z,51.215946
2023-02-11T05:09:20.810Z,51.216061
2023-02-11T05:10:20.794Z,51.216141
2023-02-11T05:11:20.793Z,51.216099
2023-02-11T05:12:20.795Z,51.216072
2023-02-11T05:13:20.780Z,51.216072
2023-02-11T05:14:20.789Z,51.216141
2023-02-11T05:15:20.762Z,51.216106
2023-02-11T05:16:20.809Z,51.216202
2023-02-11T05:17:20.747Z,51.216106
2023-02-11T05:18:20.738Z,51.216034
2023-02-11T05:19:20.743Z,51.216068
2023-02-11T05:20:20.744Z,51.216133
2023-02-11T05:21:20.745Z,51.216110
2023-02-11T05:22:20.737Z,51.216209
2023-02-11T05:23:20.716Z,51.216148
2023-02-11T05:24:20.694Z,51.216049
2023-02-11T05:25:20.740Z,51.215977
2023-02-11T05:26:20.712Z,51.215923
2023-02-11T05:27:20.688Z,51.216011
2023-02-11T05:28:20.744Z,51.215981
2023-02-11T05:29:20.688Z,51.216011
2023-02-11T05:30:20.695Z,51.216038
2023-02-11T05:31:20.649Z,51.216038
2023-02-11T05:32:20.658Z,51.216114
2023-02-11T05:33:20.637Z,51.216167
2023-02-11T05:34:20.636Z,51.216125
2023-02-11T05:35:20.633Z,51.216091
2023-02-11T05:36:20.653Z,51.216179
2023-02-11T05:37:20.620Z,51.216042
2023-02-11T05:38:20.610Z,51.216072
2023-02-11T05:39:20.593Z,51.216019
2023-02-11T05:40:21.594Z,51.216053
2023-02-11T05:41:20.608Z,51.216087
2023-02-11T05:42:20.650Z,51.216019
2023-02-11T05:43:20.577Z,51.216007
2023-02-11T05:44:20.561Z,51.216114
2023-02-11T05:45:20.574Z,51.216049
2023-02-11T05:46:20.627Z,51.216049
2023-02-11T05:47:20.570Z,51.216049
2023-02-11T05:48:20.555Z,51.216099
2023-02-11T05:49:20.532Z,51.216049
2023-02-11T05:50:20.526Z,51.216095
2023-02-11T05:51:20.573Z,51.216106
2023-02-11T05:52:20.510Z,51.216148
2023-02-11T05:53:20.526Z,51.216080
2023-02-11T05:54:20.526Z,51.216156
2023-02-11T05:55:20.503Z,51.216133
2023-02-11T05:56:20.568Z,51.216099
2023-02-11T05:57:20.486Z,51.216167
2023-02-11T05:58:20.494Z,51.216171
2023-02-11T05:59:20.474Z,51.216106
2023-02-11T06:00:20.463Z,51.216095
2023-02-11T06:01:20.445Z,51.216118
2023-02-11T06:02:20.492Z,51.216076
2023-02-11T06:03:20.496Z,51.216038
2023-02-11T06:04:20.435Z,51.216103
2023-02-11T06:05:20.421Z,51.216114
2023-02-11T06:06:20.414Z,51.216122
2023-02-11T06:07:20.426Z,51.216160
2023-02-11T06:08:20.409Z,51.216213
2023-02-11T06:09:20.385Z,51.216190
2023-02-11T06:10:20.395Z,51.216183
2023-02-11T06:11:20.395Z,51.216148
2023-02-11T06:12:20.385Z,51.216194
2023-02-11T06:13:20.376Z,51.215687
2023-02-11T06:14:20.396Z,51.215553
2023-02-11T06:15:20.379Z,51.215694
2023-02-11T06:16:20.406Z,51.215893
2023-02-11T06:17:20.342Z,51.215942
2023-02-11T06:18:20.343Z,51.216057
2023-02-11T06:19:20.340Z,51.216072
2023-02-11T06:20:20.342Z,51.216068
2023-02-11T06:21:20.328Z,51.216171
2023-02-11T06:22:20.326Z,51.216152
2023-02-11T06:23:20.326Z,51.216137
2023-02-11T06:24:33.099Z,51.216160
2023-02-11T06:25:22.301Z,51.216007
2023-02-11T06:26:20.282Z,51.216011
2023-02-11T06:27:20.291Z,51.216103
2023-02-11T06:28:20.439Z,51.216122
2023-02-11T06:29:20.258Z,51.216103
2023-02-11T06:30:20.278Z,51.216171
2023-02-11T06:31:20.387Z,51.216095
2023-02-11T06:32:39.290Z,51.216183
2023-02-11T06:33:22.238Z,51.216152
2023-02-11T06:34:20.227Z,51.216114
2023-02-11T06:35:20.264Z,51.216068
2023-02-11T06:36:20.214Z,51.216095
2023-02-11T06:37:20.214Z,51.216461
2023-02-11T06:38:20.215Z,51.216286
2023-02-11T06:39:20.236Z,51.216228
2023-02-11T06:40:20.200Z,51.215897
2023-02-11T06:41:20.218Z,51.216026
2023-02-11T06:42:20.187Z,51.216000
2023-02-11T06:43:21.174Z,51.216011
2023-02-11T06:44:20.200Z,51.215889
2023-02-11T06:45:20.167Z,51.215870
2023-02-11T06:46:20.214Z,51.215858
2023-02-11T06:47:20.148Z,51.215981
2023-02-11T06:48:20.135Z,51.216141
2023-02-11T06:49:20.138Z,51.215950
2023-02-11T06:50:20.136Z,51.215935
2023-02-11T06:51:20.148Z,51.216026
2023-02-11T06:52:20.109Z,51.216206
2023-02-11T06:53:20.116Z,51.216099
2023-02-11T06:54:20.096Z,51.216137
2023-02-11T06:55:20.096Z,51.216209
2023-02-11T06:56:20.072Z,51.216148
2023-02-11T06:57:20.091Z,51.216228
2023-02-11T06:58:20.067Z,51.216160
2023-02-11T06:59:20.063Z,51.215992
2023-02-11T07:00:20.061Z,51.216015
2023-02-11T07:01:20.320Z,51.215996
2023-02-11T07:02:21.119Z,51.215939
2023-02-11T07:03:21.176Z,51.215897
2023-02-11T07:04:20.025Z,51.216030
2023-02-11T07:05:20.016Z,51.216072
2023-02-11T07:06:20.007Z,51.216030
2023-02-11T07:07:20.016Z,51.215981
2023-02-11T07:08:20.014Z,51.216087
2023-02-11T07:09:19.985Z,51.216187
2023-02-11T07:10:19.989Z,51.216125
2023-02-11T07:11:19.975Z,51.216309
2023-02-11T07:12:19.966Z,51.216175
2023-02-11T07:13:19.998Z,51.215847
2023-02-11T07:14:19.956Z,51.215561
2023-02-11T07:15:19.950Z,51.215775
2023-02-11T07:16:19.982Z,51.215801
2023-02-11T07:17:19.937Z,51.215954
2023-02-11T07:18:19.959Z,51.215912
2023-02-11T07:19:20.047Z,51.215919
2023-02-11T07:20:19.936Z,51.216103
2023-02-11T07:21:19.912Z,51.216213
2023-02-11T07:22:19.896Z,51.216415
2023-02-11T07:23:19.903Z,51.216553
2023-02-11T07:24:19.941Z,51.216164
2023-02-11T07:25:19.907Z,51.216156
2023-02-11T07:26:19.889Z,51.216164
2023-02-11T07:27:19.883Z,51.216206
2023-02-11T07:28:19.955Z,51.216278
2023-02-11T07:29:19.885Z,51.216129
2023-02-11T07:30:19.886Z,51.216053
2023-02-11T07:31:20.031Z,51.216137
2023-02-11T07:32:19.963Z,51.216095
2023-02-11T07:33:19.828Z,51.215931
2023-02-11T07:34:19.846Z,51.215954
2023-02-11T07:35:19.844Z,51.216003
2023-02-11T07:36:19.819Z,51.216057
2023-02-11T07:37:19.796Z,51.216316
2023-02-11T07:38:19.810Z,51.216263
2023-02-11T07:39:19.788Z,51.216442
2023-02-11T07:40:19.795Z,51.216591
2023-02-11T07:41:19.786Z,51.216442
2023-02-11T07:42:19.770Z,51.216225
2023-02-11T07:43:19.760Z,51.216095
2023-02-11T07:44:19.762Z,51.216026
2023-02-11T07:45:19.768Z,51.216015
2023-02-11T07:46:19.832Z,51.216095
2023-02-11T07:47:19.742Z,51.216152
2023-02-11T07:48:19.726Z,51.216190
2023-02-11T07:49:20.210Z,51.216125
2023-02-11T07:50:19.726Z,51.216198
2023-02-11T07:51:20.669Z,51.216007
2023-02-11T07:52:19.709Z,51.216015
2023-02-11T07:53:19.699Z,51.216145
2023-02-11T07:54:19.750Z,51.216167
2023-02-11T07:55:19.686Z,51.216290
2023-02-11T07:56:19.672Z,51.216282
2023-02-11T07:57:19.673Z,51.216202
2023-02-11T07:58:19.652Z,51.216251
2023-02-11T07:59:19.652Z,51.216244
2023-02-11T08:00:21.205Z,51.216171
2023-02-11T08:01:20.666Z,51.216156
2023-02-11T08:02:19.663Z,51.216137
2023-02-11T08:03:19.624Z,51.216217
2023-02-11T08:04:19.635Z,51.216221
2023-02-11T08:05:19.611Z,51.216225
2023-02-11T08:06:19.609Z,51.216137
2023-02-11T08:07:19.600Z,51.216125
2023-02-11T08:08:19.605Z,51.216099
2023-02-11T08:09:19.612Z,51.216171
2023-02-11T08:10:19.584Z,51.216049
2023-02-11T08:11:19.608Z,51.216076
2023-02-11T08:12:19.573Z,51.216129
2023-02-11T08:13:19.554Z,51.216259
2023-02-11T08:14:19.554Z,51.216099
2023-02-11T08:15:19.551Z,51.216072
2023-02-11T08:16:19.609Z,51.215981
2023-02-11T08:17:19.523Z,51.216137
2023-02-11T08:18:19.510Z,51.216099
2023-02-11T08:19:19.505Z,51.216003
2023-02-11T08:20:19.500Z,51.216236
2023-02-11T08:21:19.521Z,51.216164
2023-02-11T08:22:19.480Z,51.215919
2023-02-11T08:23:20.486Z,51.216152
2023-02-11T08:24:19.473Z,51.216171
2023-02-11T08:25:19.471Z,51.216095
2023-02-11T08:26:19.475Z,51.216022
2023-02-11T08:27:19.456Z,51.215847
2023-02-11T08:28:19.490Z,51.216194
2023-02-11T08:29:19.460Z,51.216221
2023-02-11T08:30:19.439Z,51.216278
2023-02-11T08:31:19.574Z,51.216061
2023-02-11T08:32:19.528Z,51.216064
2023-02-11T08:33:19.424Z,51.216049
2023-02-11T08:34:19.413Z,51.216114
2023-02-11T08:35:19.419Z,51.215996
2023-02-11T08:36:19.493Z,51.215931
2023-02-11T08:37:19.394Z,51.215954
2023-02-11T08:38:19.382Z,51.216072
2023-02-11T08:39:20.669Z,51.216042
2023-02-11T08:40:20.396Z,51.216026
2023-02-11T08:41:19.402Z,51.216091
2023-02-11T08:42:19.353Z,51.216084
2023-02-11T08:43:19.349Z,51.216122
2023-02-11T08:44:19.357Z,51.216133
2023-02-11T08:45:19.332Z,51.216026
2023-02-11T08:46:19.384Z,51.216076
2023-02-11T08:47:19.326Z,51.216103
2023-02-11T08:48:19.320Z,51.216267
2023-02-11T08:49:19.316Z,51.216232
2023-02-11T08:50:19.298Z,51.216042
2023-02-11T08:51:19.293Z,51.216137
2023-02-11T08:52:19.345Z,51.216145
2023-02-11T08:53:19.277Z,51.215958
2023-02-11T08:54:19.274Z,51.215881
2023-02-11T08:55:19.286Z,51.215858
2023-02-11T08:56:19.267Z,51.215397
2023-02-11T08:57:19.247Z,51.215420
2023-02-11T08:58:19.367Z,51.215511
2023-02-11T08:59:19.237Z,51.215702
2023-02-11T09:00:19.266Z,51.215988
2023-02-11T09:01:21.119Z,51.215889
2023-02-11T09:02:19.274Z,51.215855
2023-02-11T09:03:19.222Z,51.215988
2023-02-11T09:04:19.227Z,51.216007
2023-02-11T09:05:19.202Z,51.216179
2023-02-11T09:06:19.186Z,51.216167
2023-02-11T09:07:19.195Z,51.216064
2023-02-11T09:08:19.190Z,51.216209
2023-02-11T09:09:19.191Z,51.216278
2023-02-11T09:10:19.169Z,51.216160
2023-02-11T09:11:19.168Z,51.216125
2023-02-11T09:12:19.155Z,51.216034
2023-02-11T09:13:19.142Z,51.215958
2023-02-11T09:14:19.161Z,51.216011
2023-02-11T09:15:19.129Z,51.215992
2023-02-11T09:16:19.136Z,51.216110
2023-02-11T09:17:19.129Z,51.216022
2023-02-11T09:18:19.126Z,51.215908
2023-02-11T09:19:19.113Z,51.216068
2023-02-11T09:20:19.110Z,51.215683
2023-02-11T09:21:19.115Z,51.215576
2023-02-11T09:22:19.077Z,51.215912
2023-02-11T09:23:20.073Z,51.216122
2023-02-11T09:24:19.077Z,51.216202
2023-02-11T09:25:19.096Z,51.216064
2023-02-11T09:26:19.058Z,51.216011
2023-02-11T09:27:19.235Z,51.216099
2023-02-11T09:28:19.048Z,51.215950
2023-02-11T09:29:19.061Z,51.215961
2023-02-11T09:30:19.053Z,51.215908
2023-02-11T09:31:19.114Z,51.215992
2023-02-11T09:32:19.045Z,51.216091
2023-02-11T09:33:19.022Z,51.216072
2023-02-11T09:34:19.023Z,51.216061
2023-02-11T09:35:19.022Z,51.216103
2023-02-11T09:36:19.018Z,51.216061
2023-02-11T09:37:19.016Z,51.216087
2023-02-11T09:38:18.994Z,51.216091
2023-02-11T09:39:18.982Z,51.216240
2023-02-11T09:40:18.974Z,51.216221
2023-02-11T09:41:18.974Z,51.216232
2023-02-11T09:42:18.972Z,51.216106
2023-02-11T09:43:18.952Z,51.216122
2023-02-11T09:44:18.947Z,51.215973
2023-02-11T09:45:18.950Z,51.215919
2023-02-11T09:46:18.943Z,51.216053
2023-02-11T09:47:18.931Z,51.216099
2023-02-11T09:48:18.916Z,51.216137
2023-02-11T09:49:18.916Z,51.216141
2023-02-11T09:50:18.902Z,51.216156
2023-02-11T09:51:18.896Z,51.216206
2023-02-11T09:52:18.976Z,51.216156
2023-02-11T09:53:18.883Z,51.216156
2023-02-11T09:54:18.879Z,51.216183
2023-02-11T09:55:18.880Z,51.216187
2023-02-11T09:56:18.872Z,51.216091
2023-02-11T09:57:28.164Z,51.216137
2023-02-11T09:58:20.867Z,51.216156
2023-02-11T09:59:18.875Z,51.216202
2023-02-11T10:00:18.863Z,51.216137
2023-02-11T10:01:20.975Z,51.216228
2023-02-11T10:02:19.847Z,51.216251
2023-02-11T10:03:18.829Z,51.216274
2023-02-11T10:04:18.872Z,51.216194
2023-02-11T10:05:18.815Z,51.216171
2023-02-11T10:06:18.823Z,51.216110
2023-02-11T10:07:18.894Z,51.216187
2023-02-11T10:08:18.791Z,51.216244
2023-02-11T10:09:18.783Z,51.216221
2023-02-11T10:10:18.775Z,51.216167
2023-02-11T10:11:30.951Z,51.216133
2023-02-11T10:12:20.779Z,51.216160
2023-02-11T10:13:18.762Z,51.216133
2023-02-11T10:14:18.756Z,51.216152
2023-02-11T10:15:18.735Z,51.216103
2023-02-11T10:16:18.749Z,51.216141
2023-02-11T10:17:18.828Z,51.216038
2023-02-11T10:18:18.724Z,51.216175
2023-02-11T10:19:18.721Z,51.216270
2023-02-11T10:20:18.703Z,51.216217
2023-02-11T10:21:18.718Z,51.216248
2023-02-11T10:22:18.705Z,51.216248
2023-02-11T10:23:18.696Z,51.216129
2023-02-11T10:24:18.688Z,51.216064
2023-02-11T10:25:18.673Z,51.216099
2023-02-11T10:26:18.685Z,51.216038
2023-02-11T10:27:18.656Z,51.216118
2023-02-11T10:28:18.727Z,51.216175
2023-02-11T10:29:18.651Z,51.216221
2023-02-11T10:30:18.650Z,51.216221
2023-02-11T10:31:18.754Z,51.216183
2023-02-11T10:32:18.625Z,51.216129
2023-02-11T10:33:18.650Z,51.216175
2023-02-11T10:34:18.613Z,51.216167
2023-02-11T10:35:18.653Z,51.216125
2023-02-11T10:36:18.592Z,51.216141
2023-02-11T10:37:18.611Z,51.216122
2023-02-11T10:38:19.015Z,51.216122
2023-02-11T10:39:18.567Z,51.216156
2023-02-11T10:40:20.037Z,51.216122
2023-02-11T10:41:18.562Z,51.215961
2023-02-11T10:42:18.558Z,51.215858
2023-02-11T10:43:18.559Z,51.215836
2023-02-11T10:44:18.533Z,51.215870
2023-02-11T10:45:19.540Z,51.215794
2023-02-11T10:46:18.567Z,51.215820
2023-02-11T10:47:18.522Z,51.215977
2023-02-11T10:48:18.555Z,51.216133
2023-02-11T10:49:18.511Z,51.216267
2023-02-11T10:50:18.514Z,51.216183
2023-02-11T10:51:18.507Z,51.216015
2023-02-11T10:52:18.512Z,51.216251
2023-02-11T10:53:18.494Z,51.216122
2023-02-11T10:54:18.481Z,51.216122
2023-02-11T10:55:18.509Z,51.216110
2023-02-11T10:56:18.501Z,51.215992
2023-02-11T10:57:18.470Z,51.215954
2023-02-11T10:58:18.451Z,51.215836
2023-02-11T10:59:21.137Z,51.215973
2023-02-11T11:00:19.458Z,51.215965
2023-02-11T11:01:24.361Z,51.216141
2023-02-11T11:02:19.418Z,51.216114
2023-02-11T11:03:18.435Z,51.216019
2023-02-11T11:04:18.477Z,51.216122
2023-02-11T11:05:18.418Z,51.216202
2023-02-11T11:06:18.411Z,51.216240
2023-02-11T11:07:18.391Z,51.216328
2023-02-11T11:08:18.399Z,51.216366
2023-02-11T11:09:18.423Z,51.216297
2023-02-11T11:10:18.369Z,51.216267
2023-02-11T11:11:18.375Z,51.216221
2023-02-11T11:12:18.371Z,51.216244
2023-02-11T11:13:18.356Z,51.216248
2023-02-11T11:14:18.351Z,51.216255
2023-02-11T11:15:18.347Z,51.216297
2023-02-11T11:16:18.455Z,51.216232
2023-02-11T11:17:18.326Z,51.216259
2023-02-11T11:18:23.191Z,51.216209
2023-02-11T11:19:20.327Z,51.215981
2023-02-11T11:20:18.315Z,51.215813
2023-02-11T11:21:18.312Z,51.215801
2023-02-11T11:22:18.288Z,51.215961
2023-02-11T11:23:18.299Z,51.216076
2023-02-11T11:24:18.274Z,51.216003